createdAt,value
2018-11-02T00:00:57.008Z,97100.46
2018-11-02T00:03:27.088Z,97103.56
2018-11-02T00:05:57.420Z,97109.31
2018-11-02T00:08:27.604Z,97119.84
2018-11-02T00:10:57.559Z,97127.05
2018-11-02T00:13:27.614Z,97126.72
2018-11-02T00:15:57.592Z,97123.03
2018-11-02T00:18:27.235Z,97133.04
2018-11-02T00:20:56.967Z,97138.14
2018-11-02T00:23:26.705Z,97148.34
2018-11-02T00:25:56.459Z,97150.45
2018-11-02T00:28:26.351Z,97158.77
2018-11-02T00:30:56.116Z,97163.88
2018-11-02T00:33:25.857Z,97161.16
2018-11-02T00:35:55.562Z,97147.64
2018-11-02T00:38:25.583Z,97125.63
2018-11-02T00:40:55.275Z,97096.48
2018-11-02T00:43:25.177Z,97088.86
2018-11-02T00:45:56.326Z,97098.35
2018-11-02T00:48:26.164Z,97126.20
2018-11-02T00:50:55.912Z,97132.33
2018-11-02T00:53:25.908Z,97139.30
2018-11-02T00:55:55.832Z,97149.86
2018-11-02T00:58:25.741Z,97151.92
2018-11-02T01:00:55.590Z,97162.30
2018-11-02T01:03:26.380Z,97168.77
2018-11-02T01:05:56.712Z,97173.34
2018-11-02T01:08:26.403Z,97165.09
2018-11-02T01:10:56.667Z,97162.05
2018-11-02T01:13:26.783Z,97168.18
2018-11-02T01:15:56.447Z,97165.66
2018-11-02T01:18:26.284Z,97171.78
2018-11-02T01:20:56.028Z,97186.38
2018-11-02T01:23:25.615Z,97195.24
2018-11-02T01:25:55.354Z,97198.14
2018-11-02T01:28:25.683Z,97201.55
2018-11-02T01:30:55.388Z,97189.53
2018-11-02T01:33:30.001Z,97182.93
2018-11-02T01:35:59.980Z,97184.17
2018-11-02T01:38:29.704Z,97189.27
2018-11-02T01:40:59.504Z,97198.44
2018-11-02T01:43:29.086Z,97202.03
2018-11-02T01:45:59.231Z,97200.67
2018-11-02T01:48:29.079Z,97200.86
2018-11-02T01:50:58.908Z,97210.86
2018-11-02T01:53:29.131Z,97212.91
2018-11-02T01:55:59.308Z,97223.95
2018-11-02T01:58:28.974Z,97221.42
2018-11-02T02:00:59.363Z,97223.47
2018-11-02T02:03:29.009Z,97230.77
2018-11-02T02:05:59.184Z,97226.87
2018-11-02T02:08:28.967Z,97227.94
2018-11-02T02:10:58.808Z,97237.09
2018-11-02T02:13:28.584Z,97235.41
2018-11-02T02:15:59.097Z,97240.50
2018-11-02T02:18:28.684Z,97245.27
2018-11-02T02:20:58.783Z,97247.13
2018-11-02T02:23:28.584Z,97254.09
2018-11-02T02:25:58.445Z,97252.73
2018-11-02T02:28:28.122Z,97250.53
2018-11-02T02:30:58.136Z,97250.23
2018-11-02T02:33:27.752Z,97251.44
2018-11-02T02:35:57.556Z,97257.05
2018-11-02T02:38:27.198Z,97253.83
2018-11-02T02:40:57.174Z,97257.23
2018-11-02T02:43:27.358Z,97270.78
2018-11-02T02:45:57.141Z,97270.97
2018-11-02T02:48:26.847Z,97277.41
2018-11-02T02:50:56.859Z,97275.22
2018-11-02T02:53:26.473Z,97283.56
2018-11-02T02:55:56.320Z,97286.78
2018-11-02T02:58:25.973Z,97289.67
2018-11-02T03:00:56.092Z,97290.70
2018-11-02T03:03:25.807Z,97291.53
2018-11-02T03:05:55.396Z,97296.63
2018-11-02T03:08:25.136Z,97314.09
2018-11-02T03:10:54.996Z,97312.41
2018-11-02T03:13:25.151Z,97320.75
2018-11-02T03:15:58.463Z,97316.17
2018-11-02T03:18:28.616Z,97325.66
2018-11-02T03:20:58.714Z,97330.75
2018-11-02T03:23:29.522Z,97340.92
2018-11-02T03:25:59.590Z,97339.57
2018-11-02T03:28:29.676Z,97342.28
2018-11-02T03:30:59.354Z,97342.63
2018-11-02T03:33:29.085Z,97356.52
2018-11-02T03:35:58.765Z,97356.70
2018-11-02T03:38:28.669Z,97354.50
2018-11-02T03:40:58.735Z,97358.56
2018-11-02T03:43:28.602Z,97366.91
2018-11-02T03:45:58.221Z,97375.21
2018-11-02T03:48:28.749Z,97377.59
2018-11-02T03:50:59.118Z,97378.94
2018-11-02T03:53:29.307Z,97384.88
2018-11-02T03:55:59.698Z,97385.89
2018-11-02T03:58:29.690Z,97393.18
2018-11-02T04:00:59.433Z,97394.20
2018-11-02T04:03:29.598Z,97399.28
2018-11-02T04:05:59.686Z,97407.92
2018-11-02T04:08:29.380Z,97411.99
2018-11-02T04:10:59.251Z,97417.08
2018-11-02T04:13:29.419Z,97418.81
2018-11-02T04:15:59.119Z,97424.74
2018-11-02T04:18:29.107Z,97432.36
2018-11-02T04:20:58.898Z,97430.16
2018-11-02T04:23:28.598Z,97430.34
2018-11-02T04:25:58.322Z,97440.00
2018-11-02T04:28:28.104Z,97445.41
2018-11-02T04:30:57.907Z,97451.86
2018-11-02T04:33:27.522Z,97463.03
2018-11-02T04:35:57.461Z,97468.28
2018-11-02T04:38:27.151Z,97480.17
2018-11-02T04:40:57.390Z,97480.69
2018-11-02T04:43:27.177Z,97488.48
2018-11-02T04:45:57.322Z,97492.03
2018-11-02T04:48:27.198Z,97493.90
2018-11-02T04:50:57.004Z,97493.90
2018-11-02T04:53:27.279Z,97498.64
2018-11-02T04:55:57.246Z,97505.92
2018-11-02T04:58:27.442Z,97509.14
2018-11-02T05:00:57.173Z,97504.41
2018-11-02T05:03:27.305Z,97517.61
2018-11-02T05:05:56.948Z,97523.03
2018-11-02T05:08:26.955Z,97519.69
2018-11-02T05:10:56.636Z,97527.81
2018-11-02T05:13:26.391Z,97539.83
2018-11-02T05:15:56.552Z,97546.61
2018-11-02T05:18:26.467Z,97556.26
2018-11-02T05:20:56.179Z,97555.58
2018-11-02T05:23:26.070Z,97570.98
2018-11-02T05:25:56.129Z,97577.42
2018-11-02T05:28:26.416Z,97581.99
2018-11-02T05:30:56.217Z,97584.91
2018-11-02T05:33:25.841Z,97596.08
2018-11-02T05:35:55.700Z,97599.97
2018-11-02T05:38:25.522Z,97600.31
2018-11-02T05:40:56.084Z,97601.47
2018-11-02T05:43:26.166Z,97607.19
2018-11-02T05:45:55.879Z,97617.19
2018-11-02T05:48:25.744Z,97618.88
2018-11-02T05:50:56.205Z,97619.19
2018-11-02T05:53:26.536Z,97625.63
2018-11-02T05:58:26.281Z,97626.80
2018-11-02T06:00:55.984Z,97632.02
2018-11-02T06:03:25.838Z,97637.95
2018-11-02T06:05:57.340Z,97646.59
2018-11-02T06:08:30.126Z,97660.95
2018-11-02T06:11:06.237Z,97673.48
2018-11-02T06:13:36.371Z,97669.39
2018-11-02T06:16:06.398Z,97674.64
2018-11-02T06:18:36.186Z,97673.63
2018-11-02T06:21:06.189Z,97679.34
2018-11-02T06:23:35.925Z,97675.95
2018-11-02T06:26:06.108Z,97679.69
2018-11-02T06:28:35.846Z,97688.16
2018-11-02T06:31:07.199Z,97686.05
2018-11-02T06:33:36.841Z,97688.45
2018-11-02T06:36:06.498Z,97690.45
2018-11-02T06:38:36.380Z,97693.67
2018-11-02T06:41:07.429Z,97697.73
2018-11-02T06:43:37.806Z,97707.91
2018-11-02T06:46:08.603Z,97714.34
2018-11-02T06:48:39.739Z,97724.17
2018-11-02T06:51:09.722Z,97727.19
2018-11-02T06:53:39.662Z,97727.70
2018-11-02T06:56:10.397Z,97736.34
2018-11-02T06:58:41.194Z,97735.83
2018-11-02T07:01:10.898Z,97744.31
2018-11-02T07:03:41.694Z,97745.50
2018-11-02T07:06:12.025Z,97752.63
2018-11-02T07:08:42.811Z,97758.73
2018-11-02T07:11:12.630Z,97761.57
2018-11-02T07:13:42.659Z,97766.48
2018-11-02T07:16:14.222Z,97767.17
2018-11-02T07:18:44.146Z,97775.81
2018-11-02T07:21:14.263Z,97771.75
2018-11-02T07:23:44.372Z,97776.16
2018-11-02T07:26:15.156Z,97777.00
2018-11-02T07:28:45.383Z,97780.27
2018-11-02T07:31:15.660Z,97792.09
2018-11-02T07:33:46.161Z,97795.83
2018-11-02T07:36:16.577Z,97786.67
2018-11-02T07:38:47.162Z,97792.77
2018-11-02T07:41:17.174Z,97796.84
2018-11-02T07:43:47.387Z,97807.87
2018-11-02T07:46:17.176Z,97808.72
2018-11-02T07:48:47.143Z,97815.16
2018-11-02T07:51:17.870Z,97817.88
2018-11-02T07:53:48.183Z,97819.74
2018-11-02T07:56:18.353Z,97821.78
2018-11-02T07:58:49.680Z,97823.13
2018-11-02T08:01:19.631Z,97829.55
2018-11-02T08:03:50.221Z,97835.31
2018-11-02T08:06:20.358Z,97837.64
2018-11-02T08:08:50.046Z,97839.31
2018-11-02T08:11:20.367Z,97839.13
2018-11-02T08:13:49.946Z,97844.56
2018-11-02T08:16:20.187Z,97838.12
2018-11-02T08:18:50.140Z,97832.17
2018-11-02T08:21:21.182Z,97830.30
2018-11-02T08:23:51.117Z,97828.95
2018-11-02T08:26:20.950Z,97823.31
2018-11-02T08:28:51.282Z,97837.09
2018-11-02T08:31:21.661Z,97829.92
2018-11-02T08:33:51.318Z,97838.06
2018-11-02T08:36:21.139Z,97835.02
2018-11-02T08:38:51.194Z,97833.99
2018-11-02T08:41:22.354Z,97837.18
2018-11-02T08:43:52.494Z,97846.84
2018-11-02T08:46:23.155Z,97849.35
2018-11-02T08:48:53.330Z,97854.61
2018-11-02T08:51:23.531Z,97858.34
2018-11-02T08:53:53.308Z,97853.25
2018-11-02T08:56:23.198Z,97861.56
2018-11-02T08:58:53.446Z,97860.51
2018-11-02T09:01:23.554Z,97860.67
2018-11-02T09:03:54.190Z,97871.19
2018-11-02T09:06:24.491Z,97874.58
2018-11-02T09:08:56.464Z,97876.82
2018-11-02T09:11:26.484Z,97877.97
2018-11-02T09:13:56.454Z,97880.86
2018-11-02T09:16:27.211Z,97887.48
2018-11-02T09:18:57.143Z,97892.56
2018-11-02T09:21:27.984Z,97891.84
2018-11-02T09:23:58.102Z,97895.41
2018-11-02T09:26:28.257Z,97895.06
2018-11-02T09:28:59.194Z,97906.95
2018-11-02T09:31:28.977Z,97908.77
2018-11-02T09:33:58.920Z,97907.92
2018-11-02T09:36:29.111Z,97911.49
2018-11-02T09:38:59.115Z,97920.14
2018-11-02T09:41:30.317Z,97921.67
2018-11-02T09:44:00.123Z,97932.67
2018-11-02T09:46:30.253Z,97942.02
2018-11-02T09:49:01.079Z,97935.89
2018-11-02T09:51:31.993Z,97939.80
2018-11-02T09:54:02.665Z,97939.28
2018-11-02T09:56:32.858Z,97940.98
2018-11-02T09:59:03.410Z,97941.83
2018-11-02T10:01:34.062Z,97955.59
2018-11-02T10:04:04.934Z,97962.52
2018-11-02T10:06:35.094Z,97962.52
2018-11-02T10:09:05.532Z,97971.34
2018-11-02T10:11:35.654Z,97972.53
2018-11-02T10:14:05.679Z,97980.01
2018-11-02T10:16:35.491Z,97979.83
2018-11-02T10:19:06.100Z,97983.53
2018-11-02T10:21:36.024Z,97979.28
2018-11-02T10:24:06.171Z,97969.77
2018-11-02T10:26:36.083Z,97976.05
2018-11-02T10:29:06.726Z,97982.34
2018-11-02T10:31:37.112Z,97984.20
2018-11-02T10:34:08.477Z,97989.47
2018-11-02T10:36:42.255Z,97993.55
2018-11-02T10:39:14.179Z,97997.29
2018-11-02T10:41:47.198Z,97998.65
2018-11-02T10:44:21.859Z,97997.29
2018-11-02T10:46:51.685Z,97995.76
2018-11-02T10:49:26.254Z,97997.12
2018-11-02T10:51:58.448Z,98008.67
2018-11-02T10:54:28.443Z,98009.18
2018-11-02T10:56:59.094Z,98011.90
2018-11-02T10:59:28.950Z,98012.75
2018-11-02T11:02:05.632Z,98017.16
2018-11-02T11:04:36.193Z,98014.62
2018-11-02T11:07:06.421Z,98019.88
2018-11-02T11:09:37.191Z,98025.32
2018-11-02T11:12:09.408Z,98028.89
2018-11-02T11:14:44.430Z,98032.25
2018-11-02T11:17:15.195Z,98033.44
2018-11-02T11:19:45.217Z,98038.70
2018-11-02T11:22:15.467Z,98028.50
2018-11-02T11:24:45.184Z,98043.13
2018-11-02T11:27:15.198Z,98040.73
2018-11-02T11:29:45.182Z,98041.25
2018-11-02T11:32:14.925Z,98041.92
2018-11-02T11:34:45.115Z,98044.61
2018-11-02T11:37:14.952Z,98047.50
2018-11-02T11:39:45.187Z,98048.00
2018-11-02T11:42:15.907Z,98041.36
2018-11-02T11:44:46.520Z,98035.08
2018-11-02T11:47:16.914Z,98041.87
2018-11-02T11:49:47.416Z,98050.37
2018-11-02T11:52:17.401Z,98049.31
2018-11-02T11:54:47.385Z,98053.94
2018-11-02T11:57:17.770Z,98054.97
2018-11-02T11:59:48.524Z,98061.77
2018-11-02T12:02:18.618Z,98056.67
2018-11-02T12:04:49.098Z,98062.45
2018-11-02T12:07:19.319Z,98064.83
2018-11-02T12:09:50.120Z,98066.18
2018-11-02T12:12:21.070Z,98067.84
2018-11-02T12:14:52.277Z,98078.55
2018-11-02T12:17:22.543Z,98074.81
2018-11-02T12:19:52.745Z,98070.21
2018-11-02T12:22:25.144Z,98068.85
2018-11-02T12:24:55.706Z,98072.42
2018-11-02T12:27:25.567Z,98070.55
2018-11-02T12:29:57.588Z,98076.81
2018-11-02T12:32:29.300Z,98076.30
2018-11-02T12:35:00.311Z,98079.35
2018-11-02T12:37:30.651Z,98083.26
2018-11-02T12:40:01.593Z,98076.31
2018-11-02T12:42:32.118Z,98072.23
2018-11-02T12:45:02.841Z,98067.47
2018-11-02T12:47:32.650Z,98071.22
2018-11-02T12:50:04.225Z,98068.16
2018-11-02T12:52:34.267Z,98068.67
2018-11-02T12:55:04.835Z,98073.94
2018-11-02T12:57:36.686Z,98078.35
2018-11-02T13:00:09.063Z,98078.86
2018-11-02T13:02:39.022Z,98086.34
2018-11-02T13:05:12.240Z,98089.58
2018-11-02T13:07:46.974Z,98090.94
2018-11-02T13:10:19.423Z,98089.91
2018-11-02T13:12:50.730Z,98090.94
2018-11-02T13:15:22.190Z,98095.02
2018-11-02T13:17:53.187Z,98103.69
2018-11-02T13:20:23.228Z,98097.73
2018-11-02T13:22:54.388Z,98100.45
2018-11-02T13:25:25.034Z,98102.84
2018-11-02T13:27:55.093Z,98106.92
2018-11-02T13:30:26.651Z,98106.41
2018-11-02T13:32:57.130Z,98106.92
2018-11-02T13:35:27.598Z,98112.36
2018-11-02T13:37:57.771Z,98119.84
2018-11-02T13:40:28.749Z,98123.38
2018-11-02T13:42:59.156Z,98121.50
2018-11-02T13:45:29.358Z,98123.38
2018-11-02T13:47:59.734Z,98133.11
2018-11-02T13:50:30.287Z,98124.61
2018-11-02T13:53:00.742Z,98130.05
2018-11-02T13:55:31.095Z,98139.57
2018-11-02T13:58:01.273Z,98143.66
2018-11-02T14:00:31.387Z,98145.02
2018-11-02T14:03:02.291Z,98147.39
2018-11-02T14:05:32.378Z,98154.70
2018-11-02T14:08:02.201Z,98157.77
2018-11-02T14:10:34.187Z,98155.05
2018-11-02T14:13:06.461Z,98154.20
2018-11-02T14:15:36.516Z,98153.34
2018-11-02T14:18:07.109Z,98158.95
2018-11-02T14:20:39.091Z,98166.61
2018-11-02T14:23:09.141Z,98168.65
2018-11-02T14:25:39.079Z,98180.21
2018-11-02T14:28:08.798Z,98180.73
2018-11-02T14:30:39.126Z,98182.94
2018-11-02T14:33:10.207Z,98187.16
2018-11-02T14:35:40.348Z,98198.20
2018-11-02T14:38:10.357Z,98211.81
2018-11-02T14:40:40.421Z,98213.68
2018-11-02T14:43:10.943Z,98214.91
2018-11-02T14:45:41.838Z,98226.30
2018-11-02T14:48:12.080Z,98228.00
2018-11-02T14:50:46.544Z,98228.00
2018-11-02T14:53:17.695Z,98234.97
2018-11-02T14:55:48.187Z,98240.58
2018-11-02T14:58:18.871Z,98241.77
2018-11-02T15:00:48.776Z,98247.88
2018-11-02T15:03:20.086Z,98252.50
2018-11-02T15:05:50.202Z,98259.64
2018-11-02T15:08:20.508Z,98260.15
2018-11-02T15:10:56.379Z,98262.53
2018-11-02T15:13:30.228Z,98264.74
2018-11-02T15:16:01.720Z,98259.47
2018-11-02T15:18:33.651Z,98253.18
2018-11-02T15:21:05.044Z,98260.86
2018-11-02T15:23:35.512Z,98263.06
2018-11-02T15:26:05.803Z,98274.96
2018-11-02T15:28:35.858Z,98272.07
2018-11-02T15:31:07.205Z,98265.61
2018-11-02T15:33:38.592Z,98266.80
2018-11-02T15:36:08.451Z,98270.70
2018-11-02T15:38:38.814Z,98277.50
2018-11-02T15:41:09.146Z,98279.37
2018-11-02T15:43:39.157Z,98285.51
2018-11-02T15:46:09.517Z,98285.85
2018-11-02T15:48:41.403Z,98287.55
2018-11-02T15:51:11.675Z,98284.16
2018-11-02T15:53:41.914Z,98286.70
2018-11-02T15:56:11.695Z,98279.56
2018-11-02T15:58:41.743Z,98282.61
2018-11-02T16:01:12.725Z,98286.34
2018-11-02T16:03:44.570Z,98290.12
2018-11-02T16:06:14.738Z,98285.52
2018-11-02T16:08:45.852Z,98280.41
2018-11-02T16:11:17.468Z,98284.48
2018-11-02T16:13:48.431Z,98288.06
2018-11-02T16:16:18.646Z,98294.71
2018-11-02T16:18:48.872Z,98295.89
2018-11-02T16:21:19.282Z,98297.09
2018-11-02T16:23:49.874Z,98301.17
2018-11-02T16:26:21.296Z,98307.97
2018-11-02T16:28:51.728Z,98311.84
2018-11-02T16:31:22.412Z,98310.67
2018-11-02T16:33:52.143Z,98310.84
2018-11-02T16:36:22.166Z,98311.00
2018-11-02T16:38:53.725Z,98321.52
2018-11-02T16:41:24.192Z,98320.02
2018-11-02T16:43:54.999Z,98325.61
2018-11-02T16:46:26.683Z,98336.14
2018-11-02T16:48:57.441Z,98344.97
2018-11-02T16:51:29.710Z,98343.11
2018-11-02T16:53:59.831Z,98347.34
2018-11-02T16:56:31.711Z,98349.88
2018-11-02T16:59:03.314Z,98358.20
2018-11-02T17:01:35.225Z,98366.33
2018-11-02T17:04:06.209Z,98372.05
2018-11-02T17:06:36.155Z,98370.70
2018-11-02T17:09:07.900Z,98374.44
2018-11-02T17:11:38.992Z,98379.33
2018-11-02T17:14:09.187Z,98383.59
2018-11-02T17:16:39.721Z,98393.80
2018-11-02T17:19:09.704Z,98398.22
2018-11-02T17:21:39.956Z,98400.42
2018-11-02T17:24:09.926Z,98415.02
2018-11-02T17:26:40.742Z,98410.06
2018-11-02T17:29:11.324Z,98421.63
2018-11-02T17:31:42.207Z,98429.08
2018-11-02T17:34:12.418Z,98429.75
2018-11-02T17:36:45.474Z,98430.76
2018-11-02T17:39:16.089Z,98441.43
2018-11-02T17:41:46.353Z,98445.34
2018-11-02T17:44:17.360Z,98451.28
2018-11-02T17:46:48.468Z,98452.64
2018-11-02T17:49:20.452Z,98453.19
2018-11-02T17:51:51.042Z,98448.45
2018-11-02T17:54:21.202Z,98446.89
2018-11-02T17:56:51.132Z,98452.33
2018-11-02T17:59:21.678Z,98454.89
2018-11-02T18:01:52.978Z,98456.25
2018-11-02T18:04:22.933Z,98464.20
2018-11-02T18:06:52.996Z,98458.73
2018-11-02T18:09:23.117Z,98458.23
2018-11-02T18:11:53.865Z,98466.57
2018-11-02T18:14:24.201Z,98469.91
2018-11-02T18:16:54.491Z,98475.34
2018-11-02T18:19:24.308Z,98479.26
2018-11-02T18:21:54.719Z,98477.24
2018-11-02T18:24:25.659Z,98481.00
2018-11-02T18:26:56.087Z,98484.38
2018-11-02T18:29:27.385Z,98490.47
2018-11-02T18:31:58.629Z,98491.64
2018-11-02T18:34:29.197Z,98493.16
2018-11-02T18:36:59.780Z,98493.66
2018-11-02T18:39:29.656Z,98495.66
2018-11-02T18:42:00.051Z,98505.82
2018-11-02T18:44:30.974Z,98511.41
2018-11-02T18:47:01.252Z,98513.93
2018-11-02T18:49:31.202Z,98514.42
2018-11-02T18:52:02.113Z,98523.63
2018-11-02T18:54:31.863Z,98528.60
2018-11-02T18:57:02.632Z,98530.11
2018-11-02T18:59:37.179Z,98521.97
2018-11-02T19:02:08.850Z,98526.69
2018-11-02T19:04:40.285Z,98529.91
2018-11-02T19:07:11.347Z,98539.36
2018-11-02T19:09:41.656Z,98540.52
2018-11-02T19:12:12.249Z,98549.67
2018-11-02T19:14:42.555Z,98547.70
2018-11-02T19:17:12.783Z,98545.34
2018-11-02T19:19:42.551Z,98550.63
2018-11-02T19:22:14.389Z,98558.22
2018-11-02T19:24:45.462Z,98554.48
2018-11-02T19:27:19.787Z,98561.93
2018-11-02T19:29:49.875Z,98562.44
2018-11-02T19:32:20.133Z,98564.59
2018-11-02T19:34:51.177Z,98564.23
2018-11-02T19:37:21.078Z,98577.02
2018-11-02T19:39:55.161Z,98569.08
2018-11-02T19:42:25.387Z,98570.28
2018-11-02T19:44:58.592Z,98572.44
2018-11-02T19:47:34.517Z,98576.36
2018-11-02T19:50:07.094Z,98575.81
2018-11-02T19:52:37.522Z,98575.95
2018-11-02T19:55:08.350Z,98583.89
2018-11-02T19:57:38.209Z,98581.17
2018-11-02T20:00:10.119Z,98583.34
2018-11-02T20:02:41.127Z,98583.17
2018-11-02T20:05:14.272Z,98585.88
2018-11-02T20:07:45.180Z,98584.09
2018-11-02T20:10:15.797Z,98576.66
2018-11-02T20:12:45.875Z,98580.43
2018-11-02T20:15:16.396Z,98585.95
2018-11-02T20:17:46.089Z,98590.33
2018-11-02T20:20:17.007Z,98592.03
2018-11-02T20:22:47.666Z,98595.05
2018-11-02T20:25:18.803Z,98604.83
2018-11-02T20:27:49.363Z,98598.95
2018-11-02T20:30:21.423Z,98592.75
2018-11-02T20:32:51.856Z,98592.95
2018-11-02T20:35:52.714Z,98594.81
2018-11-02T20:38:23.444Z,98594.70
2018-11-02T20:40:54.109Z,98598.25
2018-11-02T20:43:24.652Z,98603.98
2018-11-02T20:45:55.241Z,98605.77
2018-11-02T20:48:25.784Z,98603.61
2018-11-02T20:50:56.455Z,98607.47
2018-11-02T20:53:26.693Z,98609.44
2018-11-02T20:55:57.595Z,98607.24
2018-11-02T20:58:28.068Z,98603.72
2018-11-02T21:00:59.123Z,98600.16
2018-11-02T21:03:29.951Z,98594.02
2018-11-02T21:05:59.849Z,98596.13
2018-11-02T21:08:30.387Z,98606.23
2018-11-02T21:11:01.410Z,98598.95
2018-11-02T21:13:31.850Z,98612.22
2018-11-02T21:16:02.353Z,98608.80
2018-11-02T21:18:33.251Z,98619.51
2018-11-02T21:21:03.640Z,98619.31
2018-11-02T21:23:34.375Z,98623.53
2018-11-02T21:26:04.690Z,98624.38
2018-11-02T21:28:35.139Z,98620.31
2018-11-02T21:31:08.763Z,98627.80
2018-11-02T21:33:39.948Z,98632.88
2018-11-02T21:36:10.237Z,98638.31
2018-11-02T21:38:40.644Z,98636.30
2018-11-02T21:41:10.590Z,98629.16
2018-11-02T21:43:40.310Z,98627.45
2018-11-02T21:46:09.890Z,98625.09
2018-11-02T21:48:40.738Z,98624.38
2018-11-02T21:51:11.423Z,98629.47
2018-11-02T21:53:43.204Z,98631.86
2018-11-02T21:56:13.369Z,98628.61
2018-11-02T21:58:45.758Z,98631.00
2018-11-02T22:01:15.485Z,98632.02
2018-11-02T22:03:46.316Z,98638.09
2018-11-02T22:06:16.873Z,98633.52
2018-11-02T22:08:47.570Z,98627.03
2018-11-02T22:11:18.351Z,98632.80
2018-11-02T22:13:48.292Z,98637.88
2018-11-02T22:16:18.720Z,98644.31
2018-11-02T22:18:49.317Z,98643.95
2018-11-02T22:21:19.776Z,98648.33
2018-11-02T22:23:50.664Z,98652.40
2018-11-02T22:26:20.784Z,98645.41
2018-11-02T22:28:54.343Z,98650.84
2018-11-02T22:31:25.733Z,98657.30
2018-11-02T22:33:59.096Z,98659.96
2018-11-02T22:36:30.936Z,98670.47
2018-11-02T22:39:06.204Z,98667.91
2018-11-02T22:41:36.242Z,98658.73
2018-11-02T22:44:06.371Z,98656.02
2018-11-02T22:46:39.673Z,98657.82
2018-11-02T22:49:09.883Z,98660.18
2018-11-02T22:51:39.920Z,98663.40
2018-11-02T22:54:11.021Z,98656.55
2018-11-02T22:56:41.183Z,98657.05
2018-11-02T22:59:13.847Z,98661.42
2018-11-02T23:01:43.524Z,98660.27
2018-11-02T23:04:13.488Z,98658.83
2018-11-02T23:06:43.990Z,98658.77
2018-11-02T23:09:15.237Z,98653.67
2018-11-02T23:11:46.657Z,98656.68
2018-11-02T23:14:17.334Z,98654.47
2018-11-02T23:16:51.427Z,98665.32
2018-11-02T23:19:24.282Z,98663.91
2018-11-02T23:22:02.056Z,98663.22
2018-11-02T23:24:37.281Z,98662.52
2018-11-02T23:27:16.409Z,98666.02
2018-11-02T23:29:50.209Z,98659.56
2018-11-02T23:32:31.733Z,98667.48
2018-11-02T23:35:04.623Z,98665.92
2018-11-02T23:37:40.370Z,98663.51
2018-11-02T23:40:15.528Z,98668.39
2018-11-02T23:42:48.439Z,98673.11
2018-11-02T23:45:20.415Z,98674.25
2018-11-02T23:48:30.101Z,98679.00
2018-11-02T23:51:04.477Z,98692.34
2018-11-02T23:53:37.040Z,98682.14
2018-11-02T23:56:12.162Z,98684.98
2018-11-02T23:58:43.841Z,98679.03
